createdAt,value
2022-11-10T00:00:15.715Z,0
2022-11-10T00:01:15.259Z,0
2022-11-10T00:02:15.275Z,0
2022-11-10T00:03:15.813Z,0
2022-11-10T00:04:15.838Z,0
2022-11-10T00:05:15.563Z,0
2022-11-10T00:06:15.875Z,0
2022-11-10T00:07:16.233Z,0
2022-11-10T00:08:16.285Z,0
2022-11-10T00:09:16.360Z,0
2022-11-10T00:10:15.682Z,0
2022-11-10T00:11:15.962Z,0
2022-11-10T00:12:15.660Z,0
2022-11-10T00:13:15.682Z,0
2022-11-10T00:14:15.705Z,0
2022-11-10T00:15:15.727Z,0
2022-11-10T00:16:15.749Z,0
2022-11-10T00:17:16.012Z,0
2022-11-10T00:18:15.776Z,0
2022-11-10T00:19:16.050Z,0
2022-11-10T00:20:15.813Z,0
2022-11-10T00:21:16.097Z,0
2022-11-10T00:22:16.156Z,0
2022-11-10T00:23:15.860Z,0
2022-11-10T00:24:16.194Z,0
2022-11-10T00:25:15.900Z,0
2022-11-10T00:26:15.402Z,0
2022-11-10T00:27:15.936Z,0
2022-11-10T00:28:15.965Z,0
2022-11-10T00:29:16.238Z,0
2022-11-10T00:30:15.986Z,0
2022-11-10T00:31:16.016Z,0
2022-11-10T00:32:16.284Z,0
2022-11-10T00:33:16.298Z,0
2022-11-10T00:34:16.067Z,0
2022-11-10T00:35:15.582Z,0
2022-11-10T00:36:16.362Z,0
2022-11-10T00:37:15.889Z,0
2022-11-10T00:38:16.445Z,0
2022-11-10T00:39:16.417Z,0
2022-11-10T00:40:16.468Z,0
2022-11-10T00:41:15.930Z,0
2022-11-10T00:42:15.942Z,0
2022-11-10T00:43:16.219Z,0
2022-11-10T00:44:16.253Z,0
2022-11-10T00:45:16.010Z,0
2022-11-10T00:46:16.286Z,0
2022-11-10T00:47:16.314Z,0
2022-11-10T00:48:16.308Z,0
2022-11-10T00:49:15.827Z,0
2022-11-10T00:50:16.100Z,0
2022-11-10T00:51:16.108Z,0
2022-11-10T00:52:16.644Z,0
2022-11-10T00:53:16.421Z,0
2022-11-10T00:54:16.497Z,0
2022-11-10T00:55:16.461Z,0
2022-11-10T00:56:16.763Z,0
2022-11-10T00:57:15.974Z,0
2022-11-10T00:58:16.804Z,0
2022-11-10T00:59:16.002Z,0
2022-11-10T01:00:16.290Z,0
2022-11-10T01:01:17.072Z,0
2022-11-10T01:02:16.314Z,0
2022-11-10T01:03:16.587Z,0
2022-11-10T01:04:16.086Z,0
2022-11-10T01:05:16.122Z,0
2022-11-10T01:06:16.895Z,0
2022-11-10T01:07:16.654Z,0
2022-11-10T01:08:16.693Z,0
2022-11-10T01:09:16.982Z,0
2022-11-10T01:10:16.823Z,0
2022-11-10T01:11:16.468Z,0
2022-11-10T01:12:17.083Z,0
2022-11-10T01:13:16.773Z,0
2022-11-10T01:14:16.783Z,0
2022-11-10T01:15:16.572Z,0
2022-11-10T01:16:16.561Z,0
2022-11-10T01:17:17.106Z,0
2022-11-10T01:18:16.863Z,0
2022-11-10T01:19:17.367Z,0
2022-11-10T01:20:16.634Z,0
2022-11-10T01:21:17.182Z,0
2022-11-10T01:22:17.568Z,0
2022-11-10T01:23:17.223Z,0
2022-11-10T01:24:17.240Z,0
2022-11-10T01:25:17.203Z,0
2022-11-10T01:26:17.065Z,0
2022-11-10T01:27:16.768Z,0
2022-11-10T01:28:16.846Z,0
2022-11-10T01:29:16.555Z,0
2022-11-10T01:30:17.368Z,0
2022-11-10T01:31:17.094Z,0
2022-11-10T01:32:16.594Z,0
2022-11-10T01:33:17.145Z,0
2022-11-10T01:34:16.884Z,0
2022-11-10T01:35:16.662Z,0
2022-11-10T01:36:16.680Z,0
2022-11-10T01:37:16.966Z,0
2022-11-10T01:38:17.039Z,0
2022-11-10T01:39:17.246Z,0
2022-11-10T01:40:17.904Z,0
2022-11-10T01:41:16.803Z,0
2022-11-10T01:42:17.800Z,0
2022-11-10T01:43:17.721Z,0
2022-11-10T01:44:17.736Z,0
2022-11-10T01:45:17.092Z,0
2022-11-10T01:46:17.731Z,0
2022-11-10T01:47:21.933Z,0
2022-11-10T01:48:17.394Z,0
2022-11-10T01:49:17.177Z,0
2022-11-10T01:50:17.184Z,0
2022-11-10T01:51:17.708Z,0
2022-11-10T01:52:16.945Z,0
2022-11-10T01:53:17.742Z,0
2022-11-10T01:54:17.501Z,0
2022-11-10T01:55:17.275Z,0
2022-11-10T01:56:17.312Z,0
2022-11-10T01:57:17.849Z,0
2022-11-10T01:58:17.525Z,0
2022-11-10T01:59:17.091Z,0
2022-11-10T02:00:17.683Z,0
2022-11-10T02:01:17.842Z,0
2022-11-10T02:02:17.711Z,0
2022-11-10T02:03:17.913Z,0
2022-11-10T02:04:17.739Z,0
2022-11-10T02:05:17.717Z,0
2022-11-10T02:06:17.469Z,0
2022-11-10T02:07:17.575Z,0
2022-11-10T02:08:17.766Z,0
2022-11-10T02:09:17.775Z,0
2022-11-10T02:10:18.257Z,0
2022-11-10T02:11:17.817Z,0
2022-11-10T02:12:17.577Z,0
2022-11-10T02:13:18.236Z,0
2022-11-10T02:14:17.910Z,0
2022-11-10T02:15:17.893Z,0
2022-11-10T02:16:18.202Z,0
2022-11-10T02:17:17.678Z,0
2022-11-10T02:18:17.695Z,0
2022-11-10T02:19:17.953Z,0
2022-11-10T02:20:18.236Z,0
2022-11-10T02:21:17.484Z,0
2022-11-10T02:22:18.379Z,0
2022-11-10T02:23:18.451Z,0
2022-11-10T02:24:18.037Z,0
2022-11-10T02:25:18.068Z,0
2022-11-10T02:26:17.824Z,0
2022-11-10T02:27:17.847Z,0
2022-11-10T02:28:18.115Z,0
2022-11-10T02:29:18.412Z,0
2022-11-10T02:30:18.202Z,0
2022-11-10T02:31:18.368Z,0
2022-11-10T02:32:18.497Z,0
2022-11-10T02:33:18.298Z,0
2022-11-10T02:34:17.978Z,0
2022-11-10T02:35:18.251Z,0
2022-11-10T02:36:18.257Z,0
2022-11-10T02:37:18.015Z,0
2022-11-10T02:38:17.784Z,0
2022-11-10T02:39:18.308Z,0
2022-11-10T02:40:18.337Z,0
2022-11-10T02:41:18.108Z,0
2022-11-10T02:42:18.370Z,0
2022-11-10T02:43:18.390Z,0
2022-11-10T02:44:18.673Z,0
2022-11-10T02:45:18.702Z,0
2022-11-10T02:46:18.503Z,0
2022-11-10T02:47:17.946Z,0
2022-11-10T02:48:18.787Z,0
2022-11-10T02:49:18.500Z,0
2022-11-10T02:50:18.521Z,0
2022-11-10T02:51:18.259Z,0
2022-11-10T02:52:18.812Z,0
2022-11-10T02:53:18.709Z,0
2022-11-10T02:54:18.583Z,0
2022-11-10T02:55:18.856Z,0
2022-11-10T02:56:18.629Z,0
2022-11-10T02:57:18.658Z,0
2022-11-10T02:58:18.931Z,0
2022-11-10T02:59:18.953Z,0
2022-11-10T03:00:18.957Z,0
2022-11-10T03:01:18.930Z,0
2022-11-10T03:02:19.044Z,0
2022-11-10T03:03:18.940Z,0
2022-11-10T03:04:18.831Z,0
2022-11-10T03:05:18.264Z,0
2022-11-10T03:06:18.807Z,0
2022-11-10T03:07:19.354Z,0
2022-11-10T03:08:18.844Z,0
2022-11-10T03:09:18.860Z,0
2022-11-10T03:10:18.416Z,0
2022-11-10T03:11:18.894Z,0
2022-11-10T03:12:18.944Z,0
2022-11-10T03:13:19.288Z,0
2022-11-10T03:14:18.947Z,0
2022-11-10T03:15:18.981Z,0
2022-11-10T03:16:18.982Z,0
2022-11-10T03:17:18.768Z,0
2022-11-10T03:18:19.079Z,0
2022-11-10T03:19:19.311Z,0
2022-11-10T03:20:19.132Z,0
2022-11-10T03:21:19.074Z,0
2022-11-10T03:22:18.584Z,0
2022-11-10T03:23:19.566Z,0
2022-11-10T03:24:19.134Z,0
2022-11-10T03:25:19.148Z,0
2022-11-10T03:26:19.163Z,0
2022-11-10T03:27:19.208Z,0
2022-11-10T03:28:19.226Z,0
2022-11-10T03:29:19.222Z,0
2022-11-10T03:30:19.530Z,0
2022-11-10T03:31:19.001Z,0
2022-11-10T03:32:19.270Z,0
2022-11-10T03:33:19.693Z,0
2022-11-10T03:34:19.628Z,0
2022-11-10T03:35:19.323Z,0
2022-11-10T03:36:19.649Z,0
2022-11-10T03:37:19.109Z,0
2022-11-10T03:38:19.642Z,0
2022-11-10T03:39:19.415Z,0
2022-11-10T03:40:19.675Z,0
2022-11-10T03:41:28.589Z,0
2022-11-10T03:42:19.721Z,0
2022-11-10T03:43:19.950Z,0
2022-11-10T03:44:19.752Z,0
2022-11-10T03:45:19.520Z,0
2022-11-10T03:46:19.775Z,0
2022-11-10T03:47:19.631Z,0
2022-11-10T03:48:19.825Z,0
2022-11-10T03:49:19.883Z,0
2022-11-10T03:50:19.901Z,0
2022-11-10T03:51:19.650Z,0
2022-11-10T03:52:19.696Z,0
2022-11-10T03:53:20.177Z,0
2022-11-10T03:54:19.410Z,0
2022-11-10T03:55:19.590Z,0
2022-11-10T03:56:19.992Z,0
2022-11-10T03:57:19.469Z,0
2022-11-10T03:58:19.655Z,0
2022-11-10T03:59:19.764Z,0
2022-11-10T04:00:20.093Z,0
2022-11-10T04:01:20.407Z,0
2022-11-10T04:02:19.654Z,0
2022-11-10T04:03:20.221Z,0
2022-11-10T04:04:19.870Z,0
2022-11-10T04:05:19.914Z,0
2022-11-10T04:06:20.197Z,0
2022-11-10T04:07:19.843Z,0
2022-11-10T04:08:19.968Z,0
2022-11-10T04:09:19.936Z,0
2022-11-10T04:10:20.233Z,0
2022-11-10T04:11:20.152Z,0
2022-11-10T04:12:27.187Z,0
2022-11-10T04:13:20.030Z,0
2022-11-10T04:14:19.840Z,0
2022-11-10T04:15:19.928Z,0
2022-11-10T04:16:19.655Z,0
2022-11-10T04:17:20.077Z,0
2022-11-10T04:18:20.163Z,0
2022-11-10T04:19:20.389Z,0
2022-11-10T04:20:19.893Z,0
2022-11-10T04:21:20.427Z,0
2022-11-10T04:22:20.214Z,0
2022-11-10T04:23:20.244Z,0
2022-11-10T04:24:20.523Z,0
2022-11-10T04:25:20.233Z,0
2022-11-10T04:26:20.245Z,0
2022-11-10T04:27:20.521Z,0
2022-11-10T04:28:20.038Z,0
2022-11-10T04:29:20.561Z,0
2022-11-10T04:30:19.807Z,0
2022-11-10T04:31:20.105Z,0
2022-11-10T04:32:20.606Z,0
2022-11-10T04:33:20.687Z,0
2022-11-10T04:34:20.136Z,0
2022-11-10T04:35:20.400Z,0
2022-11-10T04:36:19.914Z,0
2022-11-10T04:37:20.466Z,0
2022-11-10T04:38:20.763Z,0
2022-11-10T04:39:20.766Z,0
2022-11-10T04:40:20.864Z,0
2022-11-10T04:41:20.254Z,0
2022-11-10T04:42:20.521Z,0
2022-11-10T04:43:20.984Z,0
2022-11-10T04:44:20.587Z,0
2022-11-10T04:45:20.582Z,0
2022-11-10T04:46:20.862Z,0
2022-11-10T04:47:21.839Z,0
2022-11-10T04:48:20.639Z,0
2022-11-10T04:49:20.419Z,0
2022-11-10T04:50:20.779Z,0
2022-11-10T04:51:20.958Z,0
2022-11-10T04:52:20.456Z,0
2022-11-10T04:53:21.408Z,0
2022-11-10T04:54:21.051Z,0
2022-11-10T04:55:20.759Z,0
2022-11-10T04:56:21.085Z,0
2022-11-10T04:57:21.066Z,0
2022-11-10T04:58:20.372Z,0
2022-11-10T04:59:21.097Z,0
2022-11-10T05:00:21.131Z,0
2022-11-10T05:01:21.691Z,0
2022-11-10T05:02:20.630Z,0
2022-11-10T05:03:21.376Z,0
2022-11-10T05:04:20.920Z,0
2022-11-10T05:05:20.691Z,0
2022-11-10T05:06:20.971Z,0
2022-11-10T05:07:21.390Z,0
2022-11-10T05:08:21.259Z,0
2022-11-10T05:09:21.041Z,0
2022-11-10T05:10:21.188Z,0
2022-11-10T05:11:21.070Z,0
2022-11-10T05:12:27.382Z,0
2022-11-10T05:13:21.958Z,0
2022-11-10T05:14:21.118Z,0
2022-11-10T05:15:20.870Z,0
2022-11-10T05:16:21.155Z,0
2022-11-10T05:17:21.168Z,0
2022-11-10T05:18:20.927Z,0
2022-11-10T05:19:20.950Z,0
2022-11-10T05:20:21.488Z,0
2022-11-10T05:21:21.257Z,0
2022-11-10T05:22:21.508Z,0
2022-11-10T05:23:21.540Z,0
2022-11-10T05:24:21.039Z,0
2022-11-10T05:25:21.328Z,0
2022-11-10T05:26:21.633Z,0
2022-11-10T05:27:21.364Z,0
2022-11-10T05:28:21.152Z,0
2022-11-10T05:29:21.644Z,0
2022-11-10T05:30:20.878Z,0
2022-11-10T05:31:21.687Z,0
2022-11-10T05:32:21.170Z,0
2022-11-10T05:33:22.490Z,0
2022-11-10T05:34:21.231Z,0
2022-11-10T05:35:21.499Z,0
2022-11-10T05:36:21.508Z,0
2022-11-10T05:37:21.265Z,0
2022-11-10T05:38:21.806Z,0
2022-11-10T05:39:21.310Z,0
2022-11-10T05:40:21.575Z,0
2022-11-10T05:41:21.645Z,0
2022-11-10T05:42:21.662Z,0
2022-11-10T05:43:22.279Z,0
2022-11-10T05:44:21.712Z,0
2022-11-10T05:45:21.156Z,0
2022-11-10T05:46:21.686Z,0
2022-11-10T05:47:21.456Z,0
2022-11-10T05:48:21.724Z,0
2022-11-10T05:49:21.502Z,0
2022-11-10T05:50:22.038Z,0
2022-11-10T05:51:21.785Z,0
2022-11-10T05:52:21.806Z,0
2022-11-10T05:53:22.508Z,0
2022-11-10T05:54:21.837Z,0
2022-11-10T05:55:21.599Z,0
2022-11-10T05:56:22.129Z,0
2022-11-10T05:57:21.920Z,0
2022-11-10T05:58:22.210Z,0
2022-11-10T05:59:21.921Z,0
2022-11-10T06:00:22.310Z,0
2022-11-10T06:01:21.968Z,0
2022-11-10T06:02:21.718Z,0
2022-11-10T06:03:23.342Z,0
2022-11-10T06:04:22.014Z,0
2022-11-10T06:05:24.597Z,0
2022-11-10T06:06:22.057Z,0
2022-11-10T06:07:22.036Z,0
2022-11-10T06:08:22.552Z,0
2022-11-10T06:09:22.118Z,0
2022-11-10T06:10:22.679Z,0
2022-11-10T06:11:22.034Z,0
2022-11-10T06:12:22.521Z,0
2022-11-10T06:13:23.083Z,0
2022-11-10T06:14:22.600Z,0
2022-11-10T06:15:22.363Z,0
2022-11-10T06:16:22.588Z,0
2022-11-10T06:17:22.061Z,0
2022-11-10T06:18:22.275Z,0
2022-11-10T06:19:22.286Z,0
2022-11-10T06:20:22.296Z,0
2022-11-10T06:21:22.257Z,0
2022-11-10T06:22:22.607Z,0
2022-11-10T06:23:23.576Z,0
2022-11-10T06:24:22.627Z,0
2022-11-10T06:25:22.403Z,0
2022-11-10T06:26:22.663Z,0
2022-11-10T06:27:22.446Z,0
2022-11-10T06:28:22.190Z,0
2022-11-10T06:29:29.661Z,0
2022-11-10T06:30:22.781Z,0
2022-11-10T06:31:22.501Z,0
2022-11-10T06:32:22.816Z,0
2022-11-10T06:33:23.664Z,0
2022-11-10T06:34:22.545Z,0
2022-11-10T06:35:22.570Z,0
2022-11-10T06:36:22.074Z,0
2022-11-10T06:37:22.342Z,0
2022-11-10T06:38:22.873Z,0
2022-11-10T06:39:22.644Z,0
2022-11-10T06:40:22.655Z,0
2022-11-10T06:41:28.775Z,0
2022-11-10T06:42:22.965Z,0
2022-11-10T06:43:23.631Z,0
2022-11-10T06:44:22.715Z,0
2022-11-10T06:45:23.038Z,0
2022-11-10T06:46:23.076Z,0
2022-11-10T06:47:23.040Z,0
2022-11-10T06:48:23.105Z,0
2022-11-10T06:49:22.577Z,0
2022-11-10T06:50:22.829Z,5
2022-11-10T06:51:23.117Z,5
2022-11-10T06:52:23.129Z,5
2022-11-10T06:53:29.803Z,5
2022-11-10T06:54:22.644Z,5
2022-11-10T06:55:22.672Z,5
2022-11-10T06:56:22.995Z,5
2022-11-10T06:57:23.228Z,5
2022-11-10T06:58:22.986Z,5
2022-11-10T06:59:23.256Z,5
2022-11-10T07:00:23.272Z,5
2022-11-10T07:01:29.626Z,5
2022-11-10T07:02:23.436Z,5
2022-11-10T07:03:23.933Z,5
2022-11-10T07:04:29.223Z,5
2022-11-10T07:05:23.162Z,10
2022-11-10T07:06:22.872Z,10
2022-11-10T07:07:23.253Z,10
2022-11-10T07:08:23.438Z,10
2022-11-10T07:09:23.179Z,10
2022-11-10T07:10:23.139Z,10
2022-11-10T07:11:23.215Z,10
2022-11-10T07:12:23.237Z,10
2022-11-10T07:13:24.107Z,10
2022-11-10T07:14:23.270Z,10
2022-11-10T07:15:23.037Z,10
2022-11-10T07:16:29.538Z,10
2022-11-10T07:17:23.379Z,15
2022-11-10T07:18:23.611Z,15
2022-11-10T07:19:23.386Z,15
2022-11-10T07:20:23.164Z,15
2022-11-10T07:21:23.390Z,15
2022-11-10T07:22:23.407Z,15
2022-11-10T07:23:24.468Z,15
2022-11-10T07:24:23.700Z,15
2022-11-10T07:25:23.317Z,20
2022-11-10T07:26:23.764Z,20
2022-11-10T07:27:23.781Z,20
2022-11-10T07:28:29.363Z,25
2022-11-10T07:29:23.881Z,25
2022-11-10T07:30:23.817Z,25
2022-11-10T07:31:23.315Z,25
2022-11-10T07:32:23.332Z,25
2022-11-10T07:33:24.681Z,25
2022-11-10T07:34:23.940Z,25
2022-11-10T07:35:23.647Z,25
2022-11-10T07:36:24.016Z,30
2022-11-10T07:37:23.948Z,30
2022-11-10T07:38:23.726Z,30
2022-11-10T07:39:23.480Z,30
2022-11-10T07:40:23.737Z,30
2022-11-10T07:41:23.765Z,30
2022-11-10T07:42:23.828Z,30
2022-11-10T07:43:25.085Z,30
2022-11-10T07:44:23.553Z,30
2022-11-10T07:45:24.081Z,25
2022-11-10T07:46:24.107Z,30
2022-11-10T07:47:24.124Z,30
2022-11-10T07:48:23.879Z,30
2022-11-10T07:49:24.207Z,30
2022-11-10T07:50:24.223Z,30
2022-11-10T07:51:23.937Z,30
2022-11-10T07:52:24.265Z,35
2022-11-10T07:53:24.573Z,30
2022-11-10T07:54:24.256Z,30
2022-11-10T07:55:23.998Z,35
2022-11-10T07:56:24.288Z,35
2022-11-10T07:57:23.785Z,40
2022-11-10T07:58:23.796Z,40
2022-11-10T07:59:24.338Z,40
2022-11-10T08:00:24.093Z,40
2022-11-10T08:01:24.429Z,40
2022-11-10T08:02:24.142Z,40
2022-11-10T08:03:25.371Z,40
2022-11-10T08:04:24.181Z,30
2022-11-10T08:05:24.477Z,30
2022-11-10T08:06:24.735Z,30
2022-11-10T08:07:24.839Z,40
2022-11-10T08:08:24.277Z,45
2022-11-10T08:09:23.998Z,45
2022-11-10T08:10:24.334Z,45
2022-11-10T08:11:24.312Z,35
2022-11-10T08:12:24.053Z,40
2022-11-10T08:13:26.025Z,45
2022-11-10T08:14:24.089Z,35
2022-11-10T08:15:24.106Z,40
2022-11-10T08:16:23.864Z,40
2022-11-10T08:17:24.662Z,40
2022-11-10T08:18:24.425Z,40
2022-11-10T08:19:24.705Z,40
2022-11-10T08:20:24.199Z,40
2022-11-10T08:21:24.780Z,40
2022-11-10T08:22:24.778Z,40
2022-11-10T08:23:25.702Z,40
2022-11-10T08:24:24.848Z,45
2022-11-10T08:25:24.111Z,40
2022-11-10T08:26:24.815Z,35
2022-11-10T08:27:24.583Z,40
2022-11-10T08:28:24.345Z,30
2022-11-10T08:29:24.377Z,25
2022-11-10T08:30:24.949Z,25
2022-11-10T08:31:24.914Z,25
2022-11-10T08:32:24.162Z,30
2022-11-10T08:33:25.883Z,30
2022-11-10T08:34:24.985Z,30
2022-11-10T08:35:24.732Z,40
2022-11-10T08:36:24.489Z,45
2022-11-10T08:37:25.066Z,45
2022-11-10T08:38:25.141Z,45
2022-11-10T08:39:47.304Z,35
2022-11-10T08:40:24.653Z,40
2022-11-10T08:41:25.091Z,40
2022-11-10T08:42:24.634Z,40
2022-11-10T08:43:25.892Z,40
2022-11-10T08:44:29.989Z,40
2022-11-10T08:45:24.909Z,40
2022-11-10T08:46:24.923Z,35
2022-11-10T08:47:24.946Z,35
2022-11-10T08:48:24.996Z,35
2022-11-10T08:49:24.985Z,35
2022-11-10T08:50:25.073Z,35
2022-11-10T08:51:25.024Z,40
2022-11-10T08:52:25.045Z,40
2022-11-10T08:53:26.457Z,35
2022-11-10T08:54:25.096Z,35
2022-11-10T08:55:25.394Z,35
2022-11-10T08:56:24.619Z,30
2022-11-10T08:57:25.122Z,30
2022-11-10T08:58:25.213Z,35
2022-11-10T08:59:25.162Z,35
2022-11-10T09:00:24.921Z,35
2022-11-10T09:01:25.505Z,35
2022-11-10T09:02:24.956Z,35
2022-11-10T09:03:27.021Z,40
2022-11-10T09:04:25.687Z,35
2022-11-10T09:05:25.047Z,35
2022-11-10T09:06:25.557Z,35
2022-11-10T09:07:25.392Z,35
2022-11-10T09:08:25.582Z,40
2022-11-10T09:09:25.692Z,45
2022-11-10T09:10:25.251Z,45
2022-11-10T09:11:25.609Z,45
2022-11-10T09:12:25.426Z,40
2022-11-10T09:13:33.750Z,45
2022-11-10T09:14:25.182Z,45
2022-11-10T09:15:25.443Z,35
2022-11-10T09:16:25.461Z,35
2022-11-10T09:17:25.489Z,45
2022-11-10T09:18:25.756Z,45
2022-11-10T09:19:29.854Z,45
2022-11-10T09:20:25.925Z,45
2022-11-10T09:21:25.567Z,40
2022-11-10T09:22:25.837Z,35
2022-11-10T09:23:26.541Z,30
2022-11-10T09:24:32.226Z,35
2022-11-10T09:25:25.656Z,45
2022-11-10T09:26:25.161Z,40
2022-11-10T09:27:25.434Z,35
2022-11-10T09:28:25.984Z,35
2022-11-10T09:29:25.457Z,35
2022-11-10T09:30:27.941Z,45
2022-11-10T09:31:25.734Z,45
2022-11-10T09:32:25.253Z,40
2022-11-10T09:33:27.565Z,35
2022-11-10T09:34:26.041Z,45
2022-11-10T09:35:25.819Z,45
2022-11-10T09:36:25.807Z,60
2022-11-10T09:37:25.858Z,65
2022-11-10T09:38:26.999Z,65
2022-11-10T09:39:25.938Z,55
2022-11-10T09:40:26.315Z,50
2022-11-10T09:41:26.219Z,55
2022-11-10T09:42:26.229Z,45
2022-11-10T09:43:27.017Z,45
2022-11-10T09:44:26.271Z,55
2022-11-10T09:45:26.241Z,40
2022-11-10T09:46:26.022Z,50
2022-11-10T09:48:04.752Z,50
2022-11-10T09:48:26.733Z,40
2022-11-10T09:49:26.067Z,45
2022-11-10T09:50:26.102Z,45
2022-11-10T09:51:26.200Z,45
2022-11-10T09:52:26.405Z,45
2022-11-10T09:53:26.406Z,45
2022-11-10T09:54:26.440Z,45
2022-11-10T09:55:26.182Z,45
2022-11-10T09:56:26.489Z,45
2022-11-10T09:57:26.243Z,45
2022-11-10T09:58:27.478Z,45
2022-11-10T09:59:26.326Z,45
2022-11-10T10:00:26.577Z,55
2022-11-10T10:01:26.681Z,50
2022-11-10T10:02:26.562Z,55
2022-11-10T10:03:26.576Z,35
2022-11-10T10:04:26.351Z,45
2022-11-10T10:05:26.134Z,40
2022-11-10T10:06:30.596Z,55
2022-11-10T10:07:26.800Z,60
2022-11-10T10:08:27.426Z,65
2022-11-10T10:09:26.694Z,50
2022-11-10T10:10:27.705Z,35
2022-11-10T10:11:26.476Z,35
2022-11-10T10:12:26.521Z,35
2022-11-10T10:13:26.536Z,40
2022-11-10T10:14:26.562Z,40
2022-11-10T10:15:30.337Z,35
2022-11-10T10:16:26.586Z,45
2022-11-10T10:17:31.559Z,50
2022-11-10T10:18:27.763Z,60
2022-11-10T10:19:26.878Z,55
2022-11-10T10:20:26.722Z,35
2022-11-10T10:21:26.655Z,30
2022-11-10T10:22:26.682Z,30
2022-11-10T10:24:13.756Z,35
2022-11-10T10:24:31.536Z,35
2022-11-10T10:25:26.485Z,40
2022-11-10T10:26:26.240Z,35
2022-11-10T10:27:26.769Z,40
2022-11-10T10:28:28.521Z,40
2022-11-10T10:29:26.845Z,35
2022-11-10T10:30:27.348Z,40
2022-11-10T10:31:26.607Z,35
2022-11-10T10:32:26.871Z,35
2022-11-10T10:33:27.130Z,35
2022-11-10T10:34:26.630Z,35
2022-11-10T10:35:26.651Z,45
2022-11-10T10:36:26.929Z,45
2022-11-10T10:37:26.952Z,45
2022-11-10T10:38:28.151Z,50
2022-11-10T10:39:27.252Z,55
2022-11-10T10:40:27.408Z,60
2022-11-10T10:41:33.246Z,80
2022-11-10T10:42:26.786Z,55
2022-11-10T10:43:27.085Z,45
2022-11-10T10:44:27.089Z,55
2022-11-10T10:45:27.785Z,60
2022-11-10T10:46:29.368Z,55
2022-11-10T10:47:27.411Z,50
2022-11-10T10:48:28.076Z,45
2022-11-10T10:49:42.843Z,55
2022-11-10T10:50:27.254Z,55
2022-11-10T10:51:27.472Z,50
2022-11-10T10:52:26.727Z,45
2022-11-10T10:53:27.252Z,55
2022-11-10T10:54:27.261Z,50
2022-11-10T10:55:27.034Z,40
2022-11-10T10:56:27.306Z,45
2022-11-10T10:57:27.077Z,50
2022-11-10T10:58:29.559Z,40
2022-11-10T10:59:27.614Z,35
2022-11-10T11:00:27.684Z,40
2022-11-10T11:01:28.164Z,40
2022-11-10T11:02:27.469Z,35
2022-11-10T11:03:27.459Z,35
2022-11-10T11:04:27.735Z,35
2022-11-10T11:05:27.724Z,35
2022-11-10T11:06:27.232Z,35
2022-11-10T11:07:27.068Z,35
2022-11-10T11:08:28.780Z,40
2022-11-10T11:09:27.026Z,35
2022-11-10T11:10:27.943Z,40
2022-11-10T11:11:27.047Z,35
2022-11-10T11:12:27.342Z,40
2022-11-10T11:13:27.608Z,40
2022-11-10T11:14:27.706Z,40
2022-11-10T11:15:27.379Z,40
2022-11-10T11:16:27.984Z,35
2022-11-10T11:17:27.821Z,35
2022-11-10T11:18:28.695Z,35
2022-11-10T11:19:27.995Z,35
2022-11-10T11:20:27.618Z,35
2022-11-10T11:21:27.504Z,35
2022-11-10T11:22:27.779Z,35
2022-11-10T11:23:27.593Z,35
2022-11-10T11:24:27.551Z,35
2022-11-10T11:25:28.101Z,35
2022-11-10T11:26:27.590Z,35
2022-11-10T11:27:27.598Z,35
2022-11-10T11:28:28.596Z,35
2022-11-10T11:29:27.890Z,35
2022-11-10T11:30:28.375Z,35
2022-11-10T11:31:28.396Z,40
2022-11-10T11:32:27.997Z,40
2022-11-10T11:33:28.264Z,35
2022-11-10T11:34:28.283Z,40
2022-11-10T11:35:27.781Z,40
2022-11-10T11:36:28.329Z,40
2022-11-10T11:37:29.158Z,45
2022-11-10T11:38:29.506Z,50
2022-11-10T11:39:28.092Z,45
2022-11-10T11:40:27.922Z,40
2022-11-10T11:41:28.129Z,45
2022-11-10T11:42:28.137Z,45
2022-11-10T11:43:28.167Z,45
2022-11-10T11:44:28.443Z,45
2022-11-10T11:45:27.940Z,55
2022-11-10T11:46:28.707Z,40
2022-11-10T11:47:28.501Z,40
2022-11-10T11:48:29.843Z,40
2022-11-10T11:49:28.041Z,40
2022-11-10T11:50:28.059Z,45
2022-11-10T11:51:28.082Z,40
2022-11-10T11:52:28.337Z,40
2022-11-10T11:53:28.355Z,40
2022-11-10T11:54:27.852Z,35
2022-11-10T11:55:28.159Z,40
2022-11-10T11:56:28.391Z,40
2022-11-10T11:57:28.158Z,45
2022-11-10T11:58:30.046Z,40
2022-11-10T11:59:28.484Z,40
2022-11-10T12:00:28.338Z,40
2022-11-10T12:01:28.242Z,40
2022-11-10T12:02:28.933Z,40
2022-11-10T12:03:28.787Z,40
2022-11-10T12:04:28.584Z,40
2022-11-10T12:05:28.939Z,45
2022-11-10T12:06:28.611Z,50
2022-11-10T12:07:28.902Z,40
2022-11-10T12:08:31.556Z,45
2022-11-10T12:09:28.179Z,45
2022-11-10T12:10:28.575Z,45
2022-11-10T12:11:28.414Z,45
2022-11-10T12:12:28.444Z,45
2022-11-10T12:13:28.971Z,45
2022-11-10T12:14:29.745Z,45
2022-11-10T12:15:28.497Z,45
2022-11-10T12:16:28.507Z,50
2022-11-10T12:17:28.008Z,50
2022-11-10T12:18:30.178Z,50
2022-11-10T12:19:28.320Z,70
2022-11-10T12:20:28.528Z,45
2022-11-10T12:21:28.889Z,55
2022-11-10T12:22:29.171Z,55
2022-11-10T12:23:29.198Z,45
2022-11-10T12:24:28.950Z,50
2022-11-10T12:25:29.199Z,45
2022-11-10T12:26:28.763Z,40
2022-11-10T12:27:29.073Z,40
2022-11-10T12:28:30.244Z,55
2022-11-10T12:29:28.747Z,70
2022-11-10T12:30:28.862Z,70
2022-11-10T12:31:29.370Z,60
2022-11-10T12:32:28.816Z,45
2022-11-10T12:33:29.358Z,45
2022-11-10T12:34:29.117Z,40
2022-11-10T12:35:29.130Z,55
2022-11-10T12:36:29.150Z,55
2022-11-10T12:37:36.217Z,65
2022-11-10T12:38:30.010Z,55
2022-11-10T12:39:29.231Z,50
2022-11-10T12:40:29.496Z,40
2022-11-10T12:41:28.981Z,40
2022-11-10T12:42:28.745Z,45
2022-11-10T12:43:29.929Z,65
2022-11-10T12:44:29.295Z,60
2022-11-10T12:45:29.298Z,40
2022-11-10T12:46:28.818Z,40
2022-11-10T12:47:29.349Z,60
2022-11-10T12:48:30.534Z,45
2022-11-10T12:49:29.661Z,45
2022-11-10T12:50:29.412Z,45
2022-11-10T12:51:29.411Z,40
2022-11-10T12:52:29.216Z,45
2022-11-10T12:53:29.771Z,45
2022-11-10T12:54:29.477Z,45
2022-11-10T12:55:29.563Z,35
2022-11-10T12:56:29.956Z,40
2022-11-10T12:57:29.538Z,40
2022-11-10T12:58:31.090Z,40
2022-11-10T12:59:29.585Z,50
2022-11-10T13:00:36.625Z,50
2022-11-10T13:01:30.348Z,50
2022-11-10T13:02:29.633Z,40
2022-11-10T13:03:29.146Z,35
2022-11-10T13:04:29.144Z,35
2022-11-10T13:05:29.719Z,45
2022-11-10T13:06:29.996Z,55
2022-11-10T13:07:29.760Z,60
2022-11-10T13:08:31.057Z,60
2022-11-10T13:09:30.099Z,50
2022-11-10T13:10:30.085Z,55
2022-11-10T13:11:30.072Z,55
2022-11-10T13:12:29.601Z,40
2022-11-10T13:13:30.229Z,40
2022-11-10T13:14:29.364Z,40
2022-11-10T13:15:30.139Z,35
2022-11-10T13:16:30.174Z,35
2022-11-10T13:17:30.182Z,45
2022-11-10T13:18:30.890Z,45
2022-11-10T13:19:30.207Z,40
2022-11-10T13:20:41.383Z,50
2022-11-10T13:21:29.980Z,45
2022-11-10T13:22:34.477Z,30
2022-11-10T13:23:29.779Z,30
2022-11-10T13:24:30.146Z,30
2022-11-10T13:25:30.116Z,30
2022-11-10T13:26:30.375Z,30
2022-11-10T13:27:30.185Z,30
2022-11-10T13:28:31.373Z,35
2022-11-10T13:29:30.404Z,45
2022-11-10T13:30:29.913Z,45
2022-11-10T13:31:30.178Z,50
2022-11-10T13:32:30.465Z,40
2022-11-10T13:33:30.419Z,35
2022-11-10T13:34:30.036Z,35
2022-11-10T13:35:30.605Z,35
2022-11-10T13:36:30.533Z,40
2022-11-10T13:37:30.299Z,45
2022-11-10T13:38:31.548Z,50
2022-11-10T13:39:30.592Z,50
2022-11-10T13:40:30.396Z,35
2022-11-10T13:41:30.435Z,35
2022-11-10T13:42:30.740Z,40
2022-11-10T13:43:30.186Z,40
2022-11-10T13:44:30.190Z,40
2022-11-10T13:45:30.751Z,50
2022-11-10T13:46:30.206Z,60
2022-11-10T13:47:30.504Z,55
2022-11-10T13:48:31.544Z,40
2022-11-10T13:49:30.598Z,45
2022-11-10T13:50:30.287Z,40
2022-11-10T13:51:30.830Z,35
2022-11-10T13:52:30.056Z,25
2022-11-10T13:53:30.859Z,30
2022-11-10T13:54:30.357Z,30
2022-11-10T13:55:30.389Z,25
2022-11-10T13:56:30.687Z,30
2022-11-10T13:57:30.997Z,40
2022-11-10T13:58:32.225Z,35
2022-11-10T13:59:30.839Z,35
2022-11-10T14:00:31.016Z,45
2022-11-10T14:01:30.878Z,40
2022-11-10T14:02:30.763Z,40
2022-11-10T14:03:32.075Z,40
2022-11-10T14:04:37.555Z,40
2022-11-10T14:05:30.838Z,45
2022-11-10T14:06:30.348Z,40
2022-11-10T14:07:30.609Z,30
2022-11-10T14:08:31.818Z,25
2022-11-10T14:09:30.893Z,25
2022-11-10T14:10:31.178Z,30
2022-11-10T14:11:30.682Z,30
2022-11-10T14:12:31.042Z,25
2022-11-10T14:13:31.290Z,25
2022-11-10T14:14:31.010Z,25
2022-11-10T14:15:31.115Z,30
2022-11-10T14:16:31.313Z,25
2022-11-10T14:17:31.065Z,25
2022-11-10T14:18:32.384Z,25
2022-11-10T14:19:30.836Z,35
2022-11-10T14:20:31.725Z,25
2022-11-10T14:21:31.381Z,25
2022-11-10T14:22:31.145Z,25
2022-11-10T14:23:30.661Z,30
2022-11-10T14:24:30.678Z,25
2022-11-10T14:25:31.479Z,25
2022-11-10T14:26:31.229Z,35
2022-11-10T14:27:31.242Z,35
2022-11-10T14:28:32.196Z,25
2022-11-10T14:29:31.781Z,20
2022-11-10T14:30:31.086Z,20